sensor_id;sensor_type;location;lat;lon;timestamp;P1;durP1;ratioP1;P2;durP2;ratioP2
76852;SDS011;65825;52.232;10.566;2023-06-22T00:00:50;14.25;;;8.73;;
76852;SDS011;65825;52.232;10.566;2023-06-22T00:03:17;13.57;;;7.78;;
76852;SDS011;65825;52.232;10.566;2023-06-22T00:05:45;13.18;;;8.38;;
76852;SDS011;65825;52.232;10.566;2023-06-22T00:08:11;19.95;;;8.40;;
76852;SDS011;65825;52.232;10.566;2023-06-22T00:10:37;12.80;;;8.23;;
76852;SDS011;65825;52.232;10.566;2023-06-22T00:13:02;13.13;;;8.13;;
76852;SDS011;65825;52.232;10.566;2023-06-22T00:15:27;15.43;;;9.15;;
76852;SDS011;65825;52.232;10.566;2023-06-22T00:17:52;18.75;;;8.20;;
76852;SDS011;65825;52.232;10.566;2023-06-22T00:20:18;15.27;;;8.37;;
76852;SDS011;65825;52.232;10.566;2023-06-22T00:22:46;13.27;;;7.70;;
76852;SDS011;65825;52.232;10.566;2023-06-22T00:25:13;14.70;;;8.60;;
76852;SDS011;65825;52.232;10.566;2023-06-22T00:27:38;13.13;;;7.75;;
76852;SDS011;65825;52.232;10.566;2023-06-22T00:30:03;13.68;;;8.05;;
76852;SDS011;65825;52.232;10.566;2023-06-22T00:32:29;14.70;;;8.88;;
76852;SDS011;65825;52.232;10.566;2023-06-22T00:34:54;14.03;;;8.63;;
76852;SDS011;65825;52.232;10.566;2023-06-22T00:37:20;17.30;;;9.83;;
76852;SDS011;65825;52.232;10.566;2023-06-22T00:39:50;16.50;;;8.90;;
76852;SDS011;65825;52.232;10.566;2023-06-22T00:42:16;14.57;;;8.85;;
76852;SDS011;65825;52.232;10.566;2023-06-22T00:44:41;16.05;;;9.18;;
76852;SDS011;65825;52.232;10.566;2023-06-22T00:47:07;14.17;;;8.77;;
76852;SDS011;65825;52.232;10.566;2023-06-22T00:49:32;16.02;;;8.40;;
76852;SDS011;65825;52.232;10.566;2023-06-22T00:51:57;13.50;;;8.25;;
76852;SDS011;65825;52.232;10.566;2023-06-22T00:54:24;15.93;;;8.57;;
76852;SDS011;65825;52.232;10.566;2023-06-22T00:56:53;15.05;;;8.88;;
76852;SDS011;65825;52.232;10.566;2023-06-22T00:59:22;13.95;;;9.10;;
76852;SDS011;65825;52.232;10.566;2023-06-22T01:04:13;13.27;;;8.10;;
76852;SDS011;65825;52.232;10.566;2023-06-22T01:06:41;14.75;;;8.90;;
76852;SDS011;65825;52.232;10.566;2023-06-22T01:09:22;14.82;;;8.38;;
76852;SDS011;65825;52.232;10.566;2023-06-22T01:11:55;14.77;;;8.15;;
76852;SDS011;65825;52.232;10.566;2023-06-22T01:14:28;14.77;;;8.07;;
76852;SDS011;65825;52.232;10.566;2023-06-22T01:17:02;17.70;;;8.15;;
76852;SDS011;65825;52.232;10.566;2023-06-22T01:22:19;17.20;;;9.45;;
76852;SDS011;65825;52.232;10.566;2023-06-22T01:24:53;16.02;;;8.35;;
76852;SDS011;65825;52.232;10.566;2023-06-22T01:27:40;18.80;;;9.00;;
76852;SDS011;65825;52.232;10.566;2023-06-22T01:30:26;16.10;;;8.70;;
76852;SDS011;65825;52.232;10.566;2023-06-22T01:32:54;15.82;;;8.75;;
76852;SDS011;65825;52.232;10.566;2023-06-22T01:35:20;18.38;;;8.80;;
76852;SDS011;65825;52.232;10.566;2023-06-22T01:40:12;16.38;;;8.35;;
76852;SDS011;65825;52.232;10.566;2023-06-22T01:42:38;13.65;;;8.27;;
76852;SDS011;65825;52.232;10.566;2023-06-22T01:45:04;14.82;;;8.85;;
76852;SDS011;65825;52.232;10.566;2023-06-22T01:47:31;18.45;;;8.85;;
76852;SDS011;65825;52.232;10.566;2023-06-22T01:49:57;15.60;;;8.60;;
76852;SDS011;65825;52.232;10.566;2023-06-22T01:52:22;16.27;;;9.68;;
76852;SDS011;65825;52.232;10.566;2023-06-22T01:54:47;16.67;;;9.07;;
76852;SDS011;65825;52.232;10.566;2023-06-22T01:57:13;19.85;;;10.05;;
76852;SDS011;65825;52.232;10.566;2023-06-22T02:02:13;16.35;;;9.95;;
76852;SDS011;65825;52.232;10.566;2023-06-22T02:04:46;18.45;;;9.68;;
76852;SDS011;65825;52.232;10.566;2023-06-22T02:07:17;19.63;;;10.25;;
76852;SDS011;65825;52.232;10.566;2023-06-22T02:09:45;18.55;;;9.68;;
76852;SDS011;65825;52.232;10.566;2023-06-22T02:12:14;15.27;;;9.13;;
76852;SDS011;65825;52.232;10.566;2023-06-22T02:14:43;19.73;;;10.32;;
76852;SDS011;65825;52.232;10.566;2023-06-22T02:17:11;18.42;;;9.43;;
76852;SDS011;65825;52.232;10.566;2023-06-22T02:22:03;19.92;;;9.93;;
76852;SDS011;65825;52.232;10.566;2023-06-22T02:26:57;16.70;;;9.85;;
76852;SDS011;65825;52.232;10.566;2023-06-22T02:29:22;17.25;;;10.50;;
76852;SDS011;65825;52.232;10.566;2023-06-22T02:31:48;17.77;;;10.40;;
76852;SDS011;65825;52.232;10.566;2023-06-22T02:34:13;18.50;;;9.90;;
76852;SDS011;65825;52.232;10.566;2023-06-22T02:36:43;19.65;;;10.73;;
76852;SDS011;65825;52.232;10.566;2023-06-22T02:39:15;18.90;;;10.77;;
76852;SDS011;65825;52.232;10.566;2023-06-22T02:41:43;18.98;;;10.18;;
76852;SDS011;65825;52.232;10.566;2023-06-22T02:44:09;16.47;;;9.30;;
76852;SDS011;65825;52.232;10.566;2023-06-22T02:46:34;18.67;;;10.83;;
76852;SDS011;65825;52.232;10.566;2023-06-22T02:49:00;17.58;;;10.38;;
76852;SDS011;65825;52.232;10.566;2023-06-22T02:51:26;17.67;;;9.98;;
76852;SDS011;65825;52.232;10.566;2023-06-22T02:53:51;18.33;;;9.97;;
76852;SDS011;65825;52.232;10.566;2023-06-22T02:56:21;19.25;;;10.35;;
76852;SDS011;65825;52.232;10.566;2023-06-22T02:58:50;16.83;;;9.93;;
76852;SDS011;65825;52.232;10.566;2023-06-22T03:01:15;17.42;;;10.27;;
76852;SDS011;65825;52.232;10.566;2023-06-22T03:03:40;19.25;;;9.73;;
76852;SDS011;65825;52.232;10.566;2023-06-22T03:06:05;17.07;;;10.10;;
76852;SDS011;65825;52.232;10.566;2023-06-22T03:08:31;18.15;;;9.68;;
76852;SDS011;65825;52.232;10.566;2023-06-22T03:10:56;19.93;;;9.77;;
76852;SDS011;65825;52.232;10.566;2023-06-22T03:15:47;17.17;;;9.75;;
76852;SDS011;65825;52.232;10.566;2023-06-22T03:18:12;15.77;;;9.53;;
76852;SDS011;65825;52.232;10.566;2023-06-22T03:20:37;15.03;;;9.33;;
76852;SDS011;65825;52.232;10.566;2023-06-22T03:23:03;18.90;;;9.55;;
76852;SDS011;65825;52.232;10.566;2023-06-22T03:25:28;16.70;;;9.50;;
76852;SDS011;65825;52.232;10.566;2023-06-22T03:27:53;20.17;;;9.30;;
76852;SDS011;65825;52.232;10.566;2023-06-22T03:30:18;14.63;;;9.10;;
76852;SDS011;65825;52.232;10.566;2023-06-22T03:32:44;17.33;;;9.93;;
76852;SDS011;65825;52.232;10.566;2023-06-22T03:37:35;18.20;;;9.52;;
76852;SDS011;65825;52.232;10.566;2023-06-22T03:40:00;16.33;;;9.02;;
76852;SDS011;65825;52.232;10.566;2023-06-22T03:42:26;16.30;;;9.90;;
76852;SDS011;65825;52.232;10.566;2023-06-22T03:44:51;15.02;;;9.27;;
76852;SDS011;65825;52.232;10.566;2023-06-22T03:47:17;16.43;;;9.63;;
76852;SDS011;65825;52.232;10.566;2023-06-22T03:52:08;16.83;;;8.37;;
76852;SDS011;65825;52.232;10.566;2023-06-22T03:54:35;13.57;;;8.27;;
76852;SDS011;65825;52.232;10.566;2023-06-22T03:57:01;14.73;;;9.88;;
76852;SDS011;65825;52.232;10.566;2023-06-22T04:01:52;17.87;;;8.77;;
76852;SDS011;65825;52.232;10.566;2023-06-22T04:04:17;21.40;;;10.27;;
76852;SDS011;65825;52.232;10.566;2023-06-22T04:06:43;20.83;;;10.38;;
76852;SDS011;65825;52.232;10.566;2023-06-22T04:11:33;18.87;;;9.73;;
76852;SDS011;65825;52.232;10.566;2023-06-22T04:13:59;23.43;;;10.03;;
76852;SDS011;65825;52.232;10.566;2023-06-22T04:18:49;17.93;;;9.97;;
76852;SDS011;65825;52.232;10.566;2023-06-22T04:21:14;14.87;;;9.23;;
76852;SDS011;65825;52.232;10.566;2023-06-22T04:23:40;16.10;;;9.67;;
76852;SDS011;65825;52.232;10.566;2023-06-22T04:26:05;15.27;;;9.45;;
76852;SDS011;65825;52.232;10.566;2023-06-22T04:30:59;15.10;;;9.20;;
76852;SDS011;65825;52.232;10.566;2023-06-22T04:33:27;19.80;;;10.93;;
76852;SDS011;65825;52.232;10.566;2023-06-22T04:35:54;22.15;;;10.90;;
76852;SDS011;65825;52.232;10.566;2023-06-22T04:38:21;15.93;;;9.65;;
76852;SDS011;65825;52.232;10.566;2023-06-22T04:40:47;21.10;;;11.27;;
76852;SDS011;65825;52.232;10.566;2023-06-22T04:43:13;19.40;;;10.18;;
76852;SDS011;65825;52.232;10.566;2023-06-22T04:48:04;17.77;;;9.13;;
76852;SDS011;65825;52.232;10.566;2023-06-22T04:50:30;26.88;;;10.52;;
76852;SDS011;65825;52.232;10.566;2023-06-22T04:55:20;15.23;;;9.30;;
76852;SDS011;65825;52.232;10.566;2023-06-22T04:57:46;16.03;;;9.07;;
76852;SDS011;65825;52.232;10.566;2023-06-22T05:00:18;16.30;;;9.63;;
76852;SDS011;65825;52.232;10.566;2023-06-22T05:02:48;19.73;;;9.10;;
76852;SDS011;65825;52.232;10.566;2023-06-22T05:05:13;16.35;;;9.85;;
76852;SDS011;65825;52.232;10.566;2023-06-22T05:07:43;18.48;;;10.27;;
76852;SDS011;65825;52.232;10.566;2023-06-22T05:10:10;17.70;;;9.95;;
76852;SDS011;65825;52.232;10.566;2023-06-22T05:12:37;16.25;;;9.50;;
76852;SDS011;65825;52.232;10.566;2023-06-22T05:15:03;16.73;;;9.50;;
76852;SDS011;65825;52.232;10.566;2023-06-22T05:19:53;16.70;;;9.80;;
76852;SDS011;65825;52.232;10.566;2023-06-22T05:22:19;17.13;;;10.20;;
76852;SDS011;65825;52.232;10.566;2023-06-22T05:24:45;17.02;;;9.02;;
76852;SDS011;65825;52.232;10.566;2023-06-22T05:29:36;14.27;;;9.07;;
76852;SDS011;65825;52.232;10.566;2023-06-22T05:34:27;16.38;;;9.05;;
76852;SDS011;65825;52.232;10.566;2023-06-22T05:39:18;17.80;;;9.90;;
76852;SDS011;65825;52.232;10.566;2023-06-22T05:44:09;13.52;;;8.73;;
76852;SDS011;65825;52.232;10.566;2023-06-22T05:49:00;11.55;;;7.22;;
76852;SDS011;65825;52.232;10.566;2023-06-22T05:53:50;13.53;;;8.30;;
76852;SDS011;65825;52.232;10.566;2023-06-22T05:56:16;15.35;;;8.27;;
76852;SDS011;65825;52.232;10.566;2023-06-22T05:58:42;13.60;;;8.18;;
76852;SDS011;65825;52.232;10.566;2023-06-22T06:03:33;12.60;;;7.33;;
76852;SDS011;65825;52.232;10.566;2023-06-22T06:08:23;13.17;;;7.00;;
76852;SDS011;65825;52.232;10.566;2023-06-22T06:13:14;15.03;;;7.63;;
76852;SDS011;65825;52.232;10.566;2023-06-22T06:18:05;15.82;;;8.43;;
76852;SDS011;65825;52.232;10.566;2023-06-22T06:20:31;14.55;;;8.57;;
76852;SDS011;65825;52.232;10.566;2023-06-22T06:25:22;17.30;;;9.80;;
76852;SDS011;65825;52.232;10.566;2023-06-22T06:30:14;12.75;;;8.30;;
76852;SDS011;65825;52.232;10.566;2023-06-22T06:32:41;13.95;;;8.23;;
76852;SDS011;65825;52.232;10.566;2023-06-22T06:35:09;13.57;;;7.95;;
76852;SDS011;65825;52.232;10.566;2023-06-22T06:37:41;12.23;;;7.95;;
76852;SDS011;65825;52.232;10.566;2023-06-22T06:40:08;12.07;;;8.07;;
76852;SDS011;65825;52.232;10.566;2023-06-22T06:42:35;15.27;;;7.95;;
76852;SDS011;65825;52.232;10.566;2023-06-22T06:45:03;10.40;;;7.05;;
76852;SDS011;65825;52.232;10.566;2023-06-22T06:47:29;13.68;;;7.50;;
76852;SDS011;65825;52.232;10.566;2023-06-22T06:49:54;17.67;;;8.27;;
76852;SDS011;65825;52.232;10.566;2023-06-22T06:52:19;11.73;;;7.73;;
76852;SDS011;65825;52.232;10.566;2023-06-22T06:54:46;12.65;;;8.25;;
76852;SDS011;65825;52.232;10.566;2023-06-22T06:57:11;11.65;;;7.25;;
76852;SDS011;65825;52.232;10.566;2023-06-22T06:59:38;12.88;;;6.90;;
76852;SDS011;65825;52.232;10.566;2023-06-22T07:04:29;13.80;;;7.30;;
76852;SDS011;65825;52.232;10.566;2023-06-22T07:06:55;13.50;;;7.15;;
76852;SDS011;65825;52.232;10.566;2023-06-22T07:09:20;15.45;;;8.00;;
76852;SDS011;65825;52.232;10.566;2023-06-22T07:11:45;12.10;;;8.17;;
76852;SDS011;65825;52.232;10.566;2023-06-22T07:14:10;17.07;;;8.73;;
76852;SDS011;65825;52.232;10.566;2023-06-22T07:16:36;14.50;;;8.85;;
76852;SDS011;65825;52.232;10.566;2023-06-22T07:19:02;10.97;;;7.90;;
76852;SDS011;65825;52.232;10.566;2023-06-22T07:21:27;14.82;;;8.68;;
76852;SDS011;65825;52.232;10.566;2023-06-22T07:23:52;11.38;;;7.93;;
76852;SDS011;65825;52.232;10.566;2023-06-22T07:26:19;13.02;;;8.50;;
76852;SDS011;65825;52.232;10.566;2023-06-22T07:28:44;13.50;;;7.97;;
76852;SDS011;65825;52.232;10.566;2023-06-22T07:31:09;15.30;;;8.55;;
76852;SDS011;65825;52.232;10.566;2023-06-22T07:33:34;13.77;;;8.40;;
76852;SDS011;65825;52.232;10.566;2023-06-22T07:36:00;13.27;;;8.13;;
76852;SDS011;65825;52.232;10.566;2023-06-22T07:38:25;14.32;;;8.60;;
76852;SDS011;65825;52.232;10.566;2023-06-22T07:40:51;14.38;;;8.75;;
76852;SDS011;65825;52.232;10.566;2023-06-22T07:43:18;15.48;;;9.32;;
76852;SDS011;65825;52.232;10.566;2023-06-22T07:45:48;13.55;;;9.05;;
76852;SDS011;65825;52.232;10.566;2023-06-22T07:48:17;14.60;;;9.25;;
76852;SDS011;65825;52.232;10.566;2023-06-22T07:50:42;14.00;;;9.68;;
76852;SDS011;65825;52.232;10.566;2023-06-22T07:53:07;16.47;;;9.37;;
76852;SDS011;65825;52.232;10.566;2023-06-22T07:55:33;13.33;;;9.43;;
76852;SDS011;65825;52.232;10.566;2023-06-22T07:57:58;13.57;;;9.17;;
76852;SDS011;65825;52.232;10.566;2023-06-22T08:00:23;14.37;;;10.20;;
76852;SDS011;65825;52.232;10.566;2023-06-22T08:02:49;12.73;;;8.68;;
76852;SDS011;65825;52.232;10.566;2023-06-22T08:05:14;18.45;;;11.00;;
76852;SDS011;65825;52.232;10.566;2023-06-22T08:07:40;15.82;;;10.13;;
76852;SDS011;65825;52.232;10.566;2023-06-22T08:10:10;18.67;;;10.48;;
76852;SDS011;65825;52.232;10.566;2023-06-22T08:12:36;14.30;;;10.23;;
76852;SDS011;65825;52.232;10.566;2023-06-22T08:15:01;19.37;;;10.17;;
76852;SDS011;65825;52.232;10.566;2023-06-22T08:17:26;19.77;;;11.32;;
76852;SDS011;65825;52.232;10.566;2023-06-22T08:19:52;16.23;;;10.90;;
76852;SDS011;65825;52.232;10.566;2023-06-22T08:22:17;15.80;;;11.43;;
76852;SDS011;65825;52.232;10.566;2023-06-22T08:24:43;17.95;;;11.13;;
76852;SDS011;65825;52.232;10.566;2023-06-22T08:27:09;19.53;;;12.23;;
76852;SDS011;65825;52.232;10.566;2023-06-22T08:29:36;19.02;;;12.45;;
76852;SDS011;65825;52.232;10.566;2023-06-22T08:32:04;18.65;;;12.93;;
76852;SDS011;65825;52.232;10.566;2023-06-22T08:34:30;19.70;;;12.23;;
76852;SDS011;65825;52.232;10.566;2023-06-22T08:36:55;18.33;;;13.07;;
76852;SDS011;65825;52.232;10.566;2023-06-22T08:39:20;20.83;;;13.10;;
76852;SDS011;65825;52.232;10.566;2023-06-22T08:41:47;18.38;;;13.00;;
76852;SDS011;65825;52.232;10.566;2023-06-22T08:44:13;19.30;;;13.35;;
76852;SDS011;65825;52.232;10.566;2023-06-22T08:46:38;18.05;;;13.50;;
76852;SDS011;65825;52.232;10.566;2023-06-22T08:49:05;19.83;;;13.10;;
76852;SDS011;65825;52.232;10.566;2023-06-22T08:51:31;19.15;;;12.18;;
76852;SDS011;65825;52.232;10.566;2023-06-22T08:53:57;18.27;;;12.40;;
76852;SDS011;65825;52.232;10.566;2023-06-22T08:56:22;19.03;;;13.20;;
76852;SDS011;65825;52.232;10.566;2023-06-22T08:58:47;19.75;;;13.48;;
76852;SDS011;65825;52.232;10.566;2023-06-22T09:01:13;21.13;;;13.47;;
76852;SDS011;65825;52.232;10.566;2023-06-22T09:03:40;18.45;;;13.35;;
76852;SDS011;65825;52.232;10.566;2023-06-22T09:06:05;21.05;;;13.70;;
76852;SDS011;65825;52.232;10.566;2023-06-22T09:08:31;20.88;;;13.70;;
76852;SDS011;65825;52.232;10.566;2023-06-22T09:10:57;18.17;;;14.40;;
76852;SDS011;65825;52.232;10.566;2023-06-22T09:13:22;21.03;;;14.13;;
76852;SDS011;65825;52.232;10.566;2023-06-22T09:15:47;21.85;;;14.65;;
76852;SDS011;65825;52.232;10.566;2023-06-22T09:18:13;20.27;;;13.30;;
76852;SDS011;65825;52.232;10.566;2023-06-22T09:20:39;21.60;;;14.98;;
76852;SDS011;65825;52.232;10.566;2023-06-22T09:23:04;21.10;;;13.87;;
76852;SDS011;65825;52.232;10.566;2023-06-22T09:25:29;17.40;;;13.25;;
76852;SDS011;65825;52.232;10.566;2023-06-22T09:27:55;19.88;;;13.75;;
76852;SDS011;65825;52.232;10.566;2023-06-22T09:30:20;22.47;;;14.90;;
76852;SDS011;65825;52.232;10.566;2023-06-22T09:32:48;23.77;;;15.13;;
76852;SDS011;65825;52.232;10.566;2023-06-22T09:35:13;22.83;;;14.57;;
76852;SDS011;65825;52.232;10.566;2023-06-22T09:37:39;20.30;;;14.02;;
76852;SDS011;65825;52.232;10.566;2023-06-22T09:40:05;20.48;;;14.40;;
76852;SDS011;65825;52.232;10.566;2023-06-22T09:42:36;23.52;;;15.40;;
76852;SDS011;65825;52.232;10.566;2023-06-22T09:45:02;19.92;;;13.85;;
76852;SDS011;65825;52.232;10.566;2023-06-22T09:47:28;19.25;;;14.00;;
76852;SDS011;65825;52.232;10.566;2023-06-22T09:49:54;21.88;;;14.85;;
76852;SDS011;65825;52.232;10.566;2023-06-22T09:52:20;18.83;;;14.10;;
76852;SDS011;65825;52.232;10.566;2023-06-22T09:54:46;18.80;;;14.15;;
76852;SDS011;65825;52.232;10.566;2023-06-22T09:57:12;24.05;;;15.07;;
76852;SDS011;65825;52.232;10.566;2023-06-22T09:59:37;22.33;;;13.88;;
76852;SDS011;65825;52.232;10.566;2023-06-22T10:02:05;18.60;;;13.73;;
76852;SDS011;65825;52.232;10.566;2023-06-22T10:04:31;20.15;;;15.15;;
76852;SDS011;65825;52.232;10.566;2023-06-22T10:06:56;17.70;;;13.45;;
76852;SDS011;65825;52.232;10.566;2023-06-22T10:09:21;19.87;;;14.90;;
76852;SDS011;65825;52.232;10.566;2023-06-22T10:11:46;19.63;;;15.15;;
76852;SDS011;65825;52.232;10.566;2023-06-22T10:14:12;19.83;;;14.90;;
76852;SDS011;65825;52.232;10.566;2023-06-22T10:16:37;17.20;;;13.35;;
76852;SDS011;65825;52.232;10.566;2023-06-22T10:19:02;18.92;;;14.57;;
76852;SDS011;65825;52.232;10.566;2023-06-22T10:21:28;19.08;;;12.98;;
76852;SDS011;65825;52.232;10.566;2023-06-22T10:23:56;17.55;;;13.20;;
76852;SDS011;65825;52.232;10.566;2023-06-22T10:26:21;18.50;;;13.37;;
76852;SDS011;65825;52.232;10.566;2023-06-22T10:28:47;22.77;;;14.38;;
76852;SDS011;65825;52.232;10.566;2023-06-22T10:31:12;17.63;;;13.63;;
76852;SDS011;65825;52.232;10.566;2023-06-22T10:33:37;17.40;;;13.30;;
76852;SDS011;65825;52.232;10.566;2023-06-22T10:36:03;19.92;;;12.90;;
76852;SDS011;65825;52.232;10.566;2023-06-22T10:38:28;17.73;;;12.73;;
76852;SDS011;65825;52.232;10.566;2023-06-22T10:40:53;18.73;;;13.43;;
76852;SDS011;65825;52.232;10.566;2023-06-22T10:43:19;17.83;;;13.10;;
76852;SDS011;65825;52.232;10.566;2023-06-22T10:45:44;16.75;;;12.43;;
76852;SDS011;65825;52.232;10.566;2023-06-22T10:48:10;18.20;;;13.23;;
76852;SDS011;65825;52.232;10.566;2023-06-22T10:50:35;18.30;;;13.23;;
76852;SDS011;65825;52.232;10.566;2023-06-22T10:53:00;17.35;;;13.38;;
76852;SDS011;65825;52.232;10.566;2023-06-22T10:55:26;15.48;;;11.60;;
76852;SDS011;65825;52.232;10.566;2023-06-22T10:57:51;15.97;;;11.80;;
76852;SDS011;65825;52.232;10.566;2023-06-22T11:00:17;14.82;;;10.93;;
76852;SDS011;65825;52.232;10.566;2023-06-22T11:02:42;16.70;;;12.75;;
76852;SDS011;65825;52.232;10.566;2023-06-22T11:05:08;14.50;;;12.30;;
76852;SDS011;65825;52.232;10.566;2023-06-22T11:07:33;16.90;;;13.07;;
76852;SDS011;65825;52.232;10.566;2023-06-22T11:09:59;14.52;;;11.30;;
76852;SDS011;65825;52.232;10.566;2023-06-22T11:12:24;13.93;;;11.82;;
76852;SDS011;65825;52.232;10.566;2023-06-22T11:14:51;12.88;;;10.63;;
76852;SDS011;65825;52.232;10.566;2023-06-22T11:17:17;16.97;;;11.53;;
76852;SDS011;65825;52.232;10.566;2023-06-22T11:19:44;14.85;;;12.80;;
76852;SDS011;65825;52.232;10.566;2023-06-22T11:22:09;19.23;;;11.23;;
76852;SDS011;65825;52.232;10.566;2023-06-22T11:24:35;12.30;;;10.90;;
76852;SDS011;65825;52.232;10.566;2023-06-22T11:27:00;15.00;;;11.35;;
76852;SDS011;65825;52.232;10.566;2023-06-22T11:29:28;11.88;;;10.05;;
76852;SDS011;65825;52.232;10.566;2023-06-22T11:31:53;14.77;;;10.60;;
76852;SDS011;65825;52.232;10.566;2023-06-22T11:34:18;12.60;;;9.83;;
76852;SDS011;65825;52.232;10.566;2023-06-22T11:36:44;12.20;;;10.35;;
76852;SDS011;65825;52.232;10.566;2023-06-22T11:39:10;12.75;;;10.25;;
76852;SDS011;65825;52.232;10.566;2023-06-22T11:41:35;12.95;;;10.88;;
76852;SDS011;65825;52.232;10.566;2023-06-22T11:44:01;14.80;;;11.03;;
76852;SDS011;65825;52.232;10.566;2023-06-22T11:46:26;14.10;;;11.35;;
76852;SDS011;65825;52.232;10.566;2023-06-22T11:48:51;13.40;;;11.20;;
76852;SDS011;65825;52.232;10.566;2023-06-22T11:51:17;12.68;;;10.88;;
76852;SDS011;65825;52.232;10.566;2023-06-22T11:53:42;13.43;;;11.00;;
76852;SDS011;65825;52.232;10.566;2023-06-22T11:56:07;13.32;;;10.77;;
76852;SDS011;65825;52.232;10.566;2023-06-22T11:58:33;13.43;;;10.30;;
76852;SDS011;65825;52.232;10.566;2023-06-22T12:00:58;13.02;;;9.60;;
76852;SDS011;65825;52.232;10.566;2023-06-22T12:03:23;12.13;;;9.00;;
76852;SDS011;65825;52.232;10.566;2023-06-22T12:05:49;15.75;;;10.02;;
76852;SDS011;65825;52.232;10.566;2023-06-22T12:08:15;11.77;;;9.77;;
76852;SDS011;65825;52.232;10.566;2023-06-22T12:10:40;10.67;;;9.43;;
76852;SDS011;65825;52.232;10.566;2023-06-22T12:13:06;13.27;;;9.40;;
76852;SDS011;65825;52.232;10.566;2023-06-22T12:15:31;11.47;;;8.00;;
76852;SDS011;65825;52.232;10.566;2023-06-22T12:17:56;10.63;;;8.77;;
76852;SDS011;65825;52.232;10.566;2023-06-22T12:20:21;10.53;;;7.87;;
76852;SDS011;65825;52.232;10.566;2023-06-22T12:22:47;9.30;;;8.37;;
76852;SDS011;65825;52.232;10.566;2023-06-22T12:25:12;13.13;;;8.77;;
76852;SDS011;65825;52.232;10.566;2023-06-22T12:27:38;10.95;;;7.82;;
76852;SDS011;65825;52.232;10.566;2023-06-22T12:30:03;11.13;;;8.90;;
76852;SDS011;65825;52.232;10.566;2023-06-22T12:32:29;10.90;;;8.77;;
76852;SDS011;65825;52.232;10.566;2023-06-22T12:34:55;10.02;;;7.85;;
76852;SDS011;65825;52.232;10.566;2023-06-22T12:37:20;10.23;;;8.35;;
76852;SDS011;65825;52.232;10.566;2023-06-22T12:39:46;10.38;;;8.27;;
76852;SDS011;65825;52.232;10.566;2023-06-22T12:42:11;10.27;;;8.80;;
76852;SDS011;65825;52.232;10.566;2023-06-22T12:44:40;10.10;;;8.68;;
76852;SDS011;65825;52.232;10.566;2023-06-22T12:47:05;9.60;;;8.50;;
76852;SDS011;65825;52.232;10.566;2023-06-22T12:49:31;11.27;;;8.90;;
76852;SDS011;65825;52.232;10.566;2023-06-22T12:51:56;9.80;;;8.73;;
76852;SDS011;65825;52.232;10.566;2023-06-22T12:54:21;12.35;;;9.57;;
76852;SDS011;65825;52.232;10.566;2023-06-22T12:56:47;11.43;;;9.80;;
76852;SDS011;65825;52.232;10.566;2023-06-22T12:59:12;13.40;;;9.68;;
76852;SDS011;65825;52.232;10.566;2023-06-22T13:01:38;12.77;;;8.70;;
76852;SDS011;65825;52.232;10.566;2023-06-22T13:04:03;11.07;;;9.82;;
76852;SDS011;65825;52.232;10.566;2023-06-22T13:06:28;12.77;;;10.10;;
76852;SDS011;65825;52.232;10.566;2023-06-22T13:08:54;19.67;;;11.05;;
76852;SDS011;65825;52.232;10.566;2023-06-22T13:11:19;13.10;;;10.07;;
76852;SDS011;65825;52.232;10.566;2023-06-22T13:13:45;11.98;;;10.43;;
76852;SDS011;65825;52.232;10.566;2023-06-22T13:16:11;13.77;;;10.82;;
76852;SDS011;65825;52.232;10.566;2023-06-22T13:18:36;11.15;;;9.73;;
76852;SDS011;65825;52.232;10.566;2023-06-22T13:21:02;11.88;;;10.00;;
76852;SDS011;65825;52.232;10.566;2023-06-22T13:23:28;12.35;;;10.45;;
76852;SDS011;65825;52.232;10.566;2023-06-22T13:25:53;14.63;;;9.95;;
76852;SDS011;65825;52.232;10.566;2023-06-22T13:28:18;12.57;;;9.90;;
76852;SDS011;65825;52.232;10.566;2023-06-22T13:30:45;11.95;;;10.43;;
76852;SDS011;65825;52.232;10.566;2023-06-22T13:33:12;15.55;;;10.52;;
76852;SDS011;65825;52.232;10.566;2023-06-22T13:35:37;11.68;;;9.95;;
76852;SDS011;65825;52.232;10.566;2023-06-22T13:38:03;14.13;;;11.15;;
76852;SDS011;65825;52.232;10.566;2023-06-22T13:40:29;14.90;;;11.23;;
76852;SDS011;65825;52.232;10.566;2023-06-22T13:42:54;14.65;;;11.65;;
76852;SDS011;65825;52.232;10.566;2023-06-22T13:45:20;13.05;;;10.85;;
76852;SDS011;65825;52.232;10.566;2023-06-22T13:47:45;13.07;;;10.73;;
76852;SDS011;65825;52.232;10.566;2023-06-22T13:50:10;13.05;;;10.68;;
76852;SDS011;65825;52.232;10.566;2023-06-22T13:52:37;16.55;;;11.85;;
76852;SDS011;65825;52.232;10.566;2023-06-22T13:55:03;14.07;;;11.27;;
76852;SDS011;65825;52.232;10.566;2023-06-22T13:57:29;13.77;;;10.73;;
76852;SDS011;65825;52.232;10.566;2023-06-22T13:59:55;13.25;;;10.85;;
76852;SDS011;65825;52.232;10.566;2023-06-22T14:02:20;13.67;;;10.93;;
76852;SDS011;65825;52.232;10.566;2023-06-22T14:04:45;15.03;;;10.73;;
76852;SDS011;65825;52.232;10.566;2023-06-22T14:07:10;16.40;;;11.30;;
76852;SDS011;65825;52.232;10.566;2023-06-22T14:09:38;15.05;;;11.20;;
76852;SDS011;65825;52.232;10.566;2023-06-22T14:12:06;16.43;;;11.23;;
76852;SDS011;65825;52.232;10.566;2023-06-22T14:14:32;15.02;;;11.13;;
76852;SDS011;65825;52.232;10.566;2023-06-22T14:16:58;14.50;;;11.10;;
76852;SDS011;65825;52.232;10.566;2023-06-22T14:19:24;15.00;;;11.43;;
76852;SDS011;65825;52.232;10.566;2023-06-22T14:21:49;14.10;;;11.70;;
76852;SDS011;65825;52.232;10.566;2023-06-22T14:24:14;16.77;;;11.30;;
76852;SDS011;65825;52.232;10.566;2023-06-22T14:26:40;16.40;;;11.63;;
76852;SDS011;65825;52.232;10.566;2023-06-22T14:29:05;16.63;;;11.13;;
76852;SDS011;65825;52.232;10.566;2023-06-22T14:31:30;16.97;;;12.23;;
76852;SDS011;65825;52.232;10.566;2023-06-22T14:33:55;13.73;;;12.13;;
76852;SDS011;65825;52.232;10.566;2023-06-22T14:36:21;18.43;;;12.07;;
76852;SDS011;65825;52.232;10.566;2023-06-22T14:38:46;16.83;;;10.67;;
76852;SDS011;65825;52.232;10.566;2023-06-22T14:41:11;14.37;;;12.00;;
76852;SDS011;65825;52.232;10.566;2023-06-22T14:43:36;16.93;;;11.57;;
76852;SDS011;65825;52.232;10.566;2023-06-22T14:46:08;16.67;;;12.23;;
76852;SDS011;65825;52.232;10.566;2023-06-22T14:48:33;16.23;;;11.33;;
76852;SDS011;65825;52.232;10.566;2023-06-22T14:50:58;13.80;;;11.47;;
76852;SDS011;65825;52.232;10.566;2023-06-22T14:53:25;18.77;;;10.98;;
76852;SDS011;65825;52.232;10.566;2023-06-22T14:55:51;14.32;;;11.70;;
76852;SDS011;65825;52.232;10.566;2023-06-22T14:58:16;14.30;;;12.00;;
76852;SDS011;65825;52.232;10.566;2023-06-22T15:00:41;16.92;;;11.80;;
76852;SDS011;65825;52.232;10.566;2023-06-22T15:03:07;13.97;;;11.87;;
76852;SDS011;65825;52.232;10.566;2023-06-22T15:05:36;15.60;;;12.48;;
76852;SDS011;65825;52.232;10.566;2023-06-22T15:08:01;14.60;;;11.40;;
76852;SDS011;65825;52.232;10.566;2023-06-22T15:10:26;18.40;;;12.67;;
76852;SDS011;65825;52.232;10.566;2023-06-22T15:12:51;14.63;;;12.17;;
76852;SDS011;65825;52.232;10.566;2023-06-22T15:15:17;17.37;;;11.83;;
76852;SDS011;65825;52.232;10.566;2023-06-22T15:17:42;14.17;;;11.37;;
76852;SDS011;65825;52.232;10.566;2023-06-22T15:20:07;17.17;;;12.10;;